Time;durP1;ratioP1;P1;durP2;ratioP2;P2;SDS_P1;SDS_P2;PMS_P1;PMS_P2;Temp;Humidity;BMP_temperature;BMP_pressure;BME280_temperature;BME280_humidity;BME280_pressure;Samples;Min_cycle;Max_cycle;Signal;HPM_P1;HPM_P2
2021/06/11 00:00:12;;;;;;;18.73;15.07;;;18.40;99.90;;;;;;4928311;29;20051;-83
2021/06/11 00:02:39;;;;;;;18.65;14.07;;;18.40;99.90;;;;;;4932449;29;20052;-83
2021/06/11 00:05:06;;;;;;;19.77;14.95;;;18.40;99.90;;;;;;4932041;29;20047;-82
2021/06/11 00:07:33;;;;;;;18.05;14.57;;;18.40;99.90;;;;;;4932493;29;20048;-81
2021/06/11 00:10:08;;;;;;;19.88;14.40;;;18.40;99.90;;;;;;4921136;29;20093;-82
2021/06/11 00:12:36;;;;;;;20.65;15.23;;;18.40;99.90;;;;;;4904741;29;20110;-82
2021/06/11 00:15:03;;;;;;;20.25;15.52;;;18.40;99.90;;;;;;4936304;29;20229;-82
2021/06/11 00:17:29;;;;;;;19.35;15.77;;;18.30;99.90;;;;;;4917823;29;20036;-83
2021/06/11 00:19:55;;;;;;;20.10;15.48;;;18.30;99.90;;;;;;4932529;29;20369;-82
2021/06/11 00:22:21;;;;;;;20.25;15.30;;;18.30;99.90;;;;;;4897563;29;20401;-83
2021/06/11 00:24:47;;;;;;;21.23;16.90;;;18.30;99.90;;;;;;4916134;29;20142;-83
2021/06/11 00:27:16;;;;;;;22.52;17.00;;;18.30;99.90;;;;;;4931496;29;20118;-82
2021/06/11 00:29:42;;;;;;;20.70;16.88;;;18.30;99.90;;;;;;4917616;29;20350;-83
2021/06/11 00:32:08;;;;;;;24.35;17.77;;;18.20;99.90;;;;;;4922027;29;20071;-83
2021/06/11 00:34:34;;;;;;;25.40;18.35;;;18.20;99.90;;;;;;4924210;29;20059;-83
2021/06/11 00:37:07;;;;;;;24.42;17.48;;;18.20;99.90;;;;;;4882391;29;20056;-82
2021/06/11 00:39:33;;;;;;;24.30;17.70;;;18.20;99.90;;;;;;4912905;29;20462;-83
2021/06/11 00:42:01;;;;;;;23.02;17.63;;;18.20;99.90;;;;;;4914366;29;20037;-83
2021/06/11 00:44:28;;;;;;;23.83;17.52;;;18.10;99.90;;;;;;4921993;29;20501;-83
2021/06/11 00:46:54;;;;;;;23.17;17.73;;;18.10;99.90;;;;;;4917219;29;20111;-83
2021/06/11 00:49:20;;;;;;;23.98;17.27;;;18.10;99.90;;;;;;4924035;29;20032;-82
2021/06/11 00:51:47;;;;;;;25.67;18.77;;;18.10;99.90;;;;;;4941077;29;20039;-83
2021/06/11 00:54:16;;;;;;;24.05;18.25;;;18.00;99.90;;;;;;4915907;29;20048;-83
2021/06/11 00:56:43;;;;;;;23.95;18.38;;;18.00;99.90;;;;;;4900027;29;20074;-83
2021/06/11 00:59:15;;;;;;;22.17;17.15;;;18.00;99.90;;;;;;4933180;29;20047;-83
2021/06/11 01:01:43;;;;;;;23.80;18.07;;;18.00;99.90;;;;;;4920835;29;20044;-83
2021/06/11 01:04:16;;;;;;;24.75;19.17;;;18.00;99.90;;;;;;4916184;29;20048;-83
2021/06/11 01:06:43;;;;;;;27.10;19.85;;;18.00;99.90;;;;;;4913709;29;20131;-83
2021/06/11 01:09:11;;;;;;;27.15;20.48;;;17.90;99.90;;;;;;4931478;29;20396;-83
2021/06/11 01:11:42;;;;;;;25.90;20.60;;;17.90;99.90;;;;;;4916986;29;20062;-82
2021/06/11 01:14:09;;;;;;;24.80;19.73;;;17.90;99.90;;;;;;4915197;29;20048;-82
2021/06/11 01:16:35;;;;;;;26.50;20.45;;;17.90;99.90;;;;;;4918891;29;20583;-83
2021/06/11 01:19:05;;;;;;;26.08;20.48;;;17.90;99.90;;;;;;4918370;29;20048;-83
2021/06/11 01:21:34;;;;;;;27.58;20.73;;;17.90;99.90;;;;;;4928695;29;20038;-83
2021/06/11 01:24:16;;;;;;;27.70;20.55;;;17.90;99.90;;;;;;4924606;29;20090;-82
2021/06/11 01:26:51;;;;;;;30.20;21.42;;;17.90;99.90;;;;;;4916439;29;20500;-82
2021/06/11 01:29:29;;;;;;;27.73;21.17;;;17.90;99.90;;;;;;4900582;29;20047;-82
2021/06/11 01:32:02;;;;;;;29.70;22.02;;;17.90;99.90;;;;;;4916376;29;20039;-81
2021/06/11 01:34:33;;;;;;;29.58;21.55;;;17.80;99.90;;;;;;4924396;29;20036;-81
2021/06/11 01:37:19;;;;;;;26.23;20.33;;;17.80;99.90;;;;;;4923780;29;20091;-81
2021/06/11 01:39:48;;;;;;;27.73;20.58;;;17.80;99.90;;;;;;4929018;29;20036;-82
2021/06/11 01:42:15;;;;;;;25.17;20.08;;;17.80;99.90;;;;;;4925135;29;20048;-81
2021/06/11 01:44:43;;;;;;;27.65;20.92;;;17.90;99.90;;;;;;4915193;29;20115;-81
2021/06/11 01:47:15;;;;;;;31.90;21.65;;;17.80;99.90;;;;;;4917001;29;20040;-81
2021/06/11 01:49:59;;;;;;;28.80;19.77;;;17.70;99.90;;;;;;4921900;29;20110;-81
2021/06/11 01:52:26;;;;;;;31.48;22.65;;;17.70;99.90;;;;;;4916445;29;20036;-81
2021/06/11 01:54:52;;;;;;;26.20;21.15;;;17.70;99.90;;;;;;4920461;29;20047;-81
2021/06/11 01:57:19;;;;;;;29.15;21.77;;;17.70;99.90;;;;;;4917751;29;20041;-81
2021/06/11 01:59:45;;;;;;;27.98;21.80;;;17.70;99.90;;;;;;4914376;29;20039;-81
2021/06/11 02:02:12;;;;;;;26.48;21.13;;;17.70;99.90;;;;;;4916162;29;20036;-81
2021/06/11 02:04:40;;;;;;;28.63;20.55;;;17.60;99.90;;;;;;4918285;29;20071;-81
2021/06/11 02:07:08;;;;;;;27.33;21.15;;;17.60;99.90;;;;;;4927584;29;20122;-81
2021/06/11 02:09:36;;;;;;;28.95;22.65;;;17.60;99.90;;;;;;4915130;29;20044;-81
2021/06/11 02:12:02;;;;;;;31.85;21.80;;;17.60;99.90;;;;;;4915047;29;20047;-81
2021/06/11 02:14:29;;;;;;;31.45;22.00;;;17.60;99.90;;;;;;4914722;29;20048;-81
2021/06/11 02:16:57;;;;;;;30.20;22.55;;;17.50;99.90;;;;;;4904315;29;20072;-81
2021/06/11 02:19:24;;;;;;;31.92;23.65;;;17.60;99.90;;;;;;4915224;29;20044;-81
2021/06/11 02:21:49;;;;;;;31.70;25.02;;;17.60;99.90;;;;;;4919720;29;20495;-81
2021/06/11 02:24:15;;;;;;;37.28;25.80;;;17.60;99.90;;;;;;4916142;29;20110;-81
2021/06/11 02:26:43;;;;;;;32.42;24.98;;;17.50;99.90;;;;;;4918971;29;20048;-81
2021/06/11 02:29:10;;;;;;;33.90;25.00;;;17.60;99.90;;;;;;4913168;29;20409;-81
2021/06/11 02:31:38;;;;;;;34.08;24.90;;;17.50;99.90;;;;;;4922924;29;20100;-81
2021/06/11 02:34:07;;;;;;;35.63;25.25;;;17.50;99.90;;;;;;4930368;29;20040;-81
2021/06/11 02:36:35;;;;;;;35.22;23.95;;;17.50;99.90;;;;;;4919000;29;20040;-81
2021/06/11 02:39:02;;;;;;;32.75;24.17;;;17.50;99.90;;;;;;4930198;29;20508;-81
2021/06/11 02:41:35;;;;;;;32.70;25.52;;;17.30;99.90;;;;;;4922128;29;20047;-81
2021/06/11 02:44:04;;;;;;;30.58;23.77;;;17.50;99.90;;;;;;4911259;29;20036;-81
2021/06/11 02:46:40;;;;;;;31.38;23.98;;;17.50;99.90;;;;;;4920203;29;20064;-81
2021/06/11 02:49:16;;;;;;;34.05;22.90;;;17.50;99.90;;;;;;4930551;29;20392;-81
2021/06/11 02:51:52;;;;;;;32.85;23.65;;;17.50;99.90;;;;;;4933930;29;20036;-81
2021/06/11 02:54:33;;;;;;;34.78;24.85;;;17.50;99.90;;;;;;4899661;29;20044;-81
2021/06/11 02:57:15;;;;;;;36.47;24.90;;;17.50;99.90;;;;;;4925017;29;20064;-80
2021/06/11 02:59:48;;;;;;;34.33;24.52;;;17.50;99.90;;;;;;4925035;29;20040;-81
2021/06/11 03:02:22;;;;;;;33.30;24.33;;;17.50;99.90;;;;;;4925363;29;20043;-82
2021/06/11 03:04:49;;;;;;;33.53;23.88;;;17.40;99.90;;;;;;4918994;29;20046;-81
2021/06/11 03:07:29;;;;;;;32.30;24.45;;;17.40;99.90;;;;;;4933688;29;20132;-81
2021/06/11 03:09:59;;;;;;;33.25;24.92;;;17.40;99.90;;;;;;4922754;29;20127;-81
2021/06/11 03:12:26;;;;;;;35.63;23.77;;;17.40;99.90;;;;;;4918990;29;20118;-81
2021/06/11 03:14:54;;;;;;;33.45;24.35;;;17.40;99.90;;;;;;4921567;29;20052;-81
2021/06/11 03:17:24;;;;;;;32.35;24.25;;;17.40;99.90;;;;;;4929754;29;20040;-81
2021/06/11 03:19:57;;;;;;;35.30;24.30;;;17.40;99.90;;;;;;4918515;29;20036;-81
2021/06/11 03:22:32;;;;;;;30.75;23.98;;;17.40;99.90;;;;;;4933476;29;20047;-81
2021/06/11 03:25:11;;;;;;;32.30;23.98;;;17.30;99.90;;;;;;4922864;29;20048;-81
2021/06/11 03:27:47;;;;;;;33.08;24.33;;;17.40;99.90;;;;;;4928729;29;20397;-81
2021/06/11 03:30:17;;;;;;;34.28;24.67;;;17.30;99.90;;;;;;4917516;29;20040;-81
2021/06/11 03:32:51;;;;;;;33.67;24.17;;;17.30;99.90;;;;;;4931346;29;20068;-81
2021/06/11 03:35:30;;;;;;;33.42;24.63;;;17.30;99.90;;;;;;4918423;29;20143;-81
2021/06/11 03:38:01;;;;;;;29.35;22.33;;;17.30;99.90;;;;;;4918371;29;20048;-81
2021/06/11 03:40:40;;;;;;;33.70;22.88;;;17.30;99.90;;;;;;4945237;29;20584;-81
2021/06/11 03:43:11;;;;;;;32.08;22.75;;;17.30;99.90;;;;;;4917224;29;20063;-81
2021/06/11 03:45:43;;;;;;;31.67;23.33;;;17.30;99.90;;;;;;4920894;29;20060;-81
2021/06/11 03:48:11;;;;;;;31.15;23.00;;;17.40;99.90;;;;;;4940078;29;20048;-81
2021/06/11 03:50:41;;;;;;;31.13;22.80;;;17.30;99.90;;;;;;4918493;29;20040;-81
2021/06/11 03:53:09;;;;;;;30.77;22.88;;;17.30;99.90;;;;;;4918037;29;20095;-81
2021/06/11 03:55:41;;;;;;;31.30;23.77;;;17.20;99.90;;;;;;4901321;29;20408;-81
2021/06/11 03:58:17;;;;;;;30.40;22.90;;;17.30;99.90;;;;;;4925738;29;20123;-81
2021/06/11 04:00:46;;;;;;;30.48;22.70;;;17.30;99.90;;;;;;4917576;29;20119;-81
2021/06/11 04:03:12;;;;;;;30.70;23.88;;;17.30;99.90;;;;;;4926497;29;20035;-81
2021/06/11 04:05:38;;;;;;;33.42;24.55;;;17.30;99.90;;;;;;4924119;29;20036;-81
2021/06/11 04:08:19;;;;;;;35.97;24.75;;;17.30;99.90;;;;;;4932195;29;20828;-81
2021/06/11 04:10:54;;;;;;;31.85;23.98;;;17.30;99.90;;;;;;4916972;29;20043;-81
2021/06/11 04:13:53;;;;;;;30.38;24.73;;;17.40;99.90;;;;;;4932091;29;20048;-81
2021/06/11 04:16:38;;;;;;;32.80;24.85;;;17.40;99.90;;;;;;4923247;29;20044;-81
2021/06/11 04:19:10;;;;;;;30.88;23.58;;;17.40;99.90;;;;;;4928993;29;20032;-81
2021/06/11 04:21:40;;;;;;;34.85;24.52;;;17.50;99.90;;;;;;4920261;29;20044;-81
2021/06/11 04:24:12;;;;;;;30.70;24.23;;;17.60;99.90;;;;;;4900674;29;20052;-81
2021/06/11 04:26:42;;;;;;;38.43;25.67;;;17.60;99.90;;;;;;4917836;29;20036;-81
2021/06/11 04:29:11;;;;;;;35.40;24.73;;;17.60;99.90;;;;;;4921077;29;20048;-81
2021/06/11 04:31:37;;;;;;;38.55;24.83;;;17.70;99.90;;;;;;4907912;29;20140;-81
2021/06/11 04:34:20;;;;;;;34.90;25.50;;;17.70;99.90;;;;;;4906847;29;20055;-81
2021/06/11 04:36:48;;;;;;;33.03;24.38;;;17.90;99.90;;;;;;4915635;29;20048;-81
2021/06/11 04:39:20;;;;;;;34.78;25.40;;;17.80;99.90;;;;;;4917433;29;20040;-81
2021/06/11 04:41:46;;;;;;;35.03;25.85;;;17.90;99.90;;;;;;4916108;29;20052;-81
2021/06/11 04:44:12;;;;;;;35.25;25.55;;;18.00;99.90;;;;;;4915991;29;20040;-81
2021/06/11 04:46:47;;;;;;;33.03;25.80;;;18.10;99.90;;;;;;4917324;29;20121;-81
2021/06/11 04:49:15;;;;;;;36.90;25.33;;;18.20;99.90;;;;;;4918377;29;20063;-81
2021/06/11 04:51:45;;;;;;;32.95;23.52;;;18.20;99.90;;;;;;4907462;29;20060;-81
2021/06/11 04:54:11;;;;;;;34.70;24.35;;;18.30;99.90;;;;;;4929137;29;20040;-81
2021/06/11 04:56:36;;;;;;;31.67;24.67;;;18.40;99.90;;;;;;4916911;29;20048;-81
2021/06/11 04:59:03;;;;;;;32.95;25.00;;;18.40;99.90;;;;;;4915975;29;20385;-80
2021/06/11 05:01:32;;;;;;;33.75;23.95;;;18.50;99.90;;;;;;4917751;29;20124;-80
2021/06/11 05:03:58;;;;;;;32.40;23.50;;;18.60;99.90;;;;;;4927395;29;20090;-80
2021/06/11 05:06:23;;;;;;;33.85;24.13;;;18.70;99.90;;;;;;4926215;29;20047;-80
2021/06/11 05:08:49;;;;;;;38.10;23.83;;;18.70;99.90;;;;;;4950268;29;20044;-80
2021/06/11 05:11:15;;;;;;;36.13;23.88;;;18.80;99.90;;;;;;4928760;29;20051;-80
2021/06/11 05:13:43;;;;;;;32.28;24.02;;;18.80;99.90;;;;;;4913289;29;20478;-80
2021/06/11 05:16:12;;;;;;;31.15;23.38;;;18.90;99.90;;;;;;4916592;29;20081;-80
2021/06/11 05:18:41;;;;;;;31.33;22.52;;;19.00;99.90;;;;;;4931581;29;20036;-80
2021/06/11 05:21:07;;;;;;;36.10;23.83;;;19.00;99.90;;;;;;4916055;29;20488;-81
2021/06/11 05:23:36;;;;;;;31.20;23.75;;;19.10;99.90;;;;;;4920256;29;20137;-81
2021/06/11 05:26:05;;;;;;;34.13;22.73;;;19.20;99.90;;;;;;4916358;29;20474;-81
2021/06/11 05:28:36;;;;;;;29.38;23.15;;;19.30;99.90;;;;;;4915172;29;20513;-81
2021/06/11 05:31:02;;;;;;;33.00;22.20;;;19.30;99.90;;;;;;4931107;29;20141;-81
2021/06/11 05:33:32;;;;;;;34.38;21.95;;;19.40;99.90;;;;;;4916086;29;20102;-82
2021/06/11 05:35:59;;;;;;;33.65;22.63;;;19.50;99.90;;;;;;4914073;29;20421;-80
2021/06/11 05:38:26;;;;;;;30.80;22.15;;;19.60;99.90;;;;;;4923998;29;20040;-79
2021/06/11 05:40:58;;;;;;;30.67;21.65;;;19.60;99.90;;;;;;4923734;29;20400;-79
2021/06/11 05:43:30;;;;;;;28.92;23.15;;;19.60;99.90;;;;;;4896492;29;20128;-80
2021/06/11 05:46:02;;;;;;;34.28;24.65;;;19.60;99.90;;;;;;4903795;29;20036;-80
2021/06/11 05:48:37;;;;;;;34.67;24.88;;;19.60;99.90;;;;;;4930218;29;20040;-80
2021/06/11 05:51:04;;;;;;;31.27;24.33;;;19.70;99.90;;;;;;4920612;29;20078;-80
2021/06/11 05:53:40;;;;;;;37.25;26.70;;;19.70;99.90;;;;;;4908674;29;20602;-80
2021/06/11 05:56:06;;;;;;;38.78;27.70;;;19.80;99.90;;;;;;4930784;29;20476;-80
2021/06/11 05:59:22;;;;;;;40.92;26.85;;;19.90;99.90;;;;;;4926676;29;20484;-77
2021/06/11 06:02:30;;;;;;;47.00;32.38;;;20.00;99.90;;;;;;4868178;29;20129;-77
2021/06/11 06:05:01;;;;;;;44.53;28.73;;;20.10;99.90;;;;;;4871900;29;20059;-85
2021/06/11 06:07:28;;;;;;;45.85;31.25;;;20.10;99.90;;;;;;4921913;29;20036;-80
2021/06/11 06:09:55;;;;;;;46.92;31.52;;;20.20;99.90;;;;;;4925561;29;20055;-82
2021/06/11 06:12:21;;;;;;;45.75;32.72;;;20.30;99.90;;;;;;4937451;29;20082;-80
2021/06/11 06:14:58;;;;;;;48.15;32.25;;;20.30;99.90;;;;;;4930019;29;20043;-81
2021/06/11 06:17:35;;;;;;;45.30;33.17;;;20.30;99.90;;;;;;4928997;29;20055;-81
2021/06/11 06:20:07;;;;;;;48.17;32.35;;;20.40;99.90;;;;;;4923174;29;20048;-81
2021/06/11 06:22:46;;;;;;;46.65;32.20;;;20.40;99.90;;;;;;4926615;29;20051;-84
2021/06/11 06:25:18;;;;;;;47.10;32.17;;;20.50;99.90;;;;;;4922116;29;20047;-77
2021/06/11 06:27:46;;;;;;;49.67;30.42;;;20.50;99.90;;;;;;4918658;29;20096;-77
2021/06/11 06:30:16;;;;;;;47.25;30.10;;;20.60;99.90;;;;;;4908829;29;20047;-76
2021/06/11 06:32:43;;;;;;;39.03;27.08;;;20.70;99.90;;;;;;4908078;29;20050;-76
2021/06/11 06:35:12;;;;;;;38.45;25.52;;;20.60;99.90;;;;;;4901794;29;20058;-80
2021/06/11 06:37:41;;;;;;;37.60;26.90;;;20.50;99.90;;;;;;4923972;29;20040;-87
2021/06/11 06:40:11;;;;;;;40.60;26.23;;;20.50;99.90;;;;;;4938619;29;20067;-86
2021/06/11 06:42:38;;;;;;;38.22;26.67;;;20.60;99.90;;;;;;4923386;29;20040;-86
2021/06/11 06:45:19;;;;;;;38.47;26.63;;;20.50;99.90;;;;;;4931738;29;20043;-82
2021/06/11 06:47:46;;;;;;;36.95;25.63;;;20.50;99.90;;;;;;4916411;29;20104;-80
2021/06/11 06:50:18;;;;;;;40.10;25.67;;;20.60;99.90;;;;;;4930644;29;20037;-79
2021/06/11 06:52:44;;;;;;;40.00;25.63;;;20.70;99.90;;;;;;4911326;29;20144;-79
2021/06/11 06:55:19;;;;;;;37.90;26.23;;;20.70;99.90;;;;;;4928478;29;20036;-79
2021/06/11 06:57:47;;;;;;;37.58;26.42;;;20.80;99.90;;;;;;4912352;29;20036;-79
2021/06/11 07:00:14;;;;;;;40.03;26.73;;;20.80;99.90;;;;;;4916326;29;20107;-79
2021/06/11 07:02:40;;;;;;;42.75;26.90;;;20.80;99.90;;;;;;4908517;29;20476;-80
2021/06/11 07:05:07;;;;;;;37.15;24.90;;;20.80;99.90;;;;;;4915016;29;20044;-81
2021/06/11 07:07:36;;;;;;;38.25;25.40;;;20.90;99.90;;;;;;4932194;29;20044;-82
2021/06/11 07:10:04;;;;;;;38.00;25.60;;;20.90;99.90;;;;;;4923540;29;20052;-81
2021/06/11 07:12:33;;;;;;;36.15;23.42;;;20.90;99.90;;;;;;4914794;29;20141;-82
2021/06/11 07:14:59;;;;;;;34.03;21.33;;;20.90;99.90;;;;;;4918242;29;20060;-81
2021/06/11 07:17:27;;;;;;;29.50;21.60;;;21.00;99.90;;;;;;4920423;29;20123;-81
2021/06/11 07:20:15;;;;;;;29.13;21.00;;;21.00;99.90;;;;;;4918524;29;20059;-80
2021/06/11 07:22:42;;;;;;;27.65;19.38;;;21.10;99.90;;;;;;4923147;29;20084;-81
2021/06/11 07:25:08;;;;;;;28.23;19.52;;;21.20;99.90;;;;;;4913511;29;20039;-81
2021/06/11 07:27:37;;;;;;;25.83;18.80;;;21.20;99.90;;;;;;4892454;29;20083;-82
2021/06/11 07:30:39;;;;;;;27.33;18.25;;;21.30;99.90;;;;;;4924196;29;20035;-82
2021/06/11 07:33:16;;;;;;;29.92;18.73;;;21.20;99.90;;;;;;4904940;29;20056;-82
2021/06/11 07:35:43;;;;;;;27.02;19.08;;;21.20;99.90;;;;;;4912452;29;20446;-81
2021/06/11 07:38:10;;;;;;;26.55;18.73;;;21.20;99.90;;;;;;4922375;29;20048;-81
2021/06/11 07:40:37;;;;;;;28.70;18.20;;;21.20;99.90;;;;;;4927208;29;20040;-82
2021/06/11 07:43:11;;;;;;;23.40;16.35;;;21.20;99.90;;;;;;4920124;29;20442;-78
2021/06/11 07:45:40;;;;;;;21.40;16.17;;;21.30;99.90;;;;;;4916307;29;20036;-77
2021/06/11 07:48:09;;;;;;;24.95;16.85;;;21.30;99.90;;;;;;4938523;29;20131;-80
2021/06/11 07:50:46;;;;;;;27.63;16.98;;;21.20;99.90;;;;;;4921968;29;20040;-78
2021/06/11 07:53:12;;;;;;;22.92;16.08;;;21.30;99.90;;;;;;4916182;29;20110;-78
2021/06/11 07:55:41;;;;;;;20.90;14.48;;;21.30;99.90;;;;;;4913200;29;20040;-78
2021/06/11 07:58:10;;;;;;;19.65;14.70;;;21.40;99.90;;;;;;4917576;29;20131;-79
2021/06/11 08:00:55;;;;;;;17.10;13.77;;;21.40;99.90;;;;;;4917064;29;20044;-79
2021/06/11 08:03:24;;;;;;;21.65;15.70;;;21.40;99.90;;;;;;4917544;29;20036;-78
2021/06/11 08:05:51;;;;;;;20.30;15.48;;;21.50;99.90;;;;;;4917580;29;20473;-77
2021/06/11 08:08:19;;;;;;;23.00;15.32;;;21.50;99.90;;;;;;4916241;29;20104;-78
2021/06/11 08:10:46;;;;;;;23.48;15.27;;;21.60;99.90;;;;;;4917670;29;20115;-78
2021/06/11 08:13:18;;;;;;;19.20;14.68;;;21.70;99.90;;;;;;4912520;29;20540;-78
2021/06/11 08:15:45;;;;;;;23.70;14.63;;;21.70;99.90;;;;;;4916390;29;20048;-78
2021/06/11 08:18:31;;;;;;;21.25;15.32;;;21.90;99.90;;;;;;4924813;29;20052;-78
2021/06/11 08:20:59;;;;;;;21.42;14.55;;;22.00;99.90;;;;;;4900703;29;20437;-78
2021/06/11 08:23:26;;;;;;;22.48;15.45;;;22.00;99.90;;;;;;4899282;29;20051;-82
2021/06/11 08:25:58;;;;;;;20.70;14.25;;;22.10;99.90;;;;;;4916881;29;20060;-82
2021/06/11 08:28:44;;;;;;;25.15;14.88;;;22.20;99.90;;;;;;4916414;29;20078;-81
2021/06/11 08:31:14;;;;;;;21.77;15.13;;;22.30;99.90;;;;;;4927660;29;20106;-82
2021/06/11 08:33:46;;;;;;;20.77;14.20;;;22.20;99.90;;;;;;4913408;29;20063;-82
2021/06/11 08:36:16;;;;;;;21.45;14.23;;;22.20;99.90;;;;;;4915810;29;20047;-82
2021/06/11 08:38:48;;;;;;;20.60;14.00;;;22.20;99.90;;;;;;4914087;29;20076;-81
2021/06/11 08:41:22;;;;;;;23.83;15.10;;;22.20;99.90;;;;;;4898558;29;20036;-82
2021/06/11 08:44:00;;;;;;;18.48;13.23;;;22.20;99.90;;;;;;4916906;29;20040;-82
2021/06/11 08:46:30;;;;;;;20.65;13.30;;;22.30;99.90;;;;;;4930679;29;20140;-82
2021/06/11 08:48:58;;;;;;;17.63;11.50;;;22.10;99.90;;;;;;4916875;29;20533;-81
2021/06/11 08:51:24;;;;;;;18.63;12.85;;;22.20;99.90;;;;;;4923675;29;20041;-81
2021/06/11 08:53:51;;;;;;;14.70;10.35;;;22.30;99.90;;;;;;4930734;29;20544;-81
2021/06/11 08:56:20;;;;;;;12.98;9.10;;;22.40;99.90;;;;;;4916343;29;20047;-81
2021/06/11 08:58:49;;;;;;;17.38;11.10;;;22.40;99.90;;;;;;4910630;29;20055;-82
2021/06/11 09:01:18;;;;;;;14.82;9.50;;;22.50;99.90;;;;;;4915897;29;20119;-82
2021/06/11 09:03:49;;;;;;;13.43;9.95;;;22.60;99.90;;;;;;4930160;29;20301;-81
2021/06/11 09:06:37;;;;;;;15.65;10.13;;;22.70;99.90;;;;;;4914648;29;20480;-82
2021/06/11 09:09:40;;;;;;;15.20;10.00;;;23.00;99.90;;;;;;4915225;29;20075;-81
2021/06/11 09:12:36;;;;;;;15.98;11.65;;;22.90;99.90;;;;;;4915689;29;20639;-81
2021/06/11 09:15:22;;;;;;;19.83;11.80;;;22.70;99.90;;;;;;4909075;29;20135;-81
2021/06/11 09:17:50;;;;;;;17.65;11.32;;;22.80;99.90;;;;;;4915624;29;20104;-80
2021/06/11 09:20:19;;;;;;;12.93;9.98;;;22.70;99.90;;;;;;4912122;29;20103;-80
2021/06/11 09:23:00;;;;;;;17.00;9.50;;;22.70;99.90;;;;;;4916430;29;20040;-80
2021/06/11 09:25:48;;;;;;;14.13;10.00;;;22.90;99.90;;;;;;4909331;29;20592;-77
2021/06/11 09:28:22;;;;;;;17.73;11.18;;;22.70;99.90;;;;;;4915971;29;20631;-80
2021/06/11 09:30:57;;;;;;;13.38;10.40;;;22.60;99.90;;;;;;4916275;29;20036;-80
2021/06/11 09:33:24;;;;;;;17.00;11.85;;;22.50;99.90;;;;;;4916089;29;20087;-82
2021/06/11 09:35:56;;;;;;;15.45;11.90;;;22.50;99.90;;;;;;4903178;29;20103;-81
2021/06/11 09:38:30;;;;;;;19.20;12.83;;;22.50;99.90;;;;;;4915138;29;20046;-82
2021/06/11 09:40:58;;;;;;;17.70;12.75;;;22.50;99.90;;;;;;4919687;29;20495;-81
2021/06/11 09:43:56;;;;;;;15.80;12.15;;;22.50;99.90;;;;;;4904983;29;20036;-78
2021/06/11 09:46:47;;;;;;;19.23;13.20;;;22.50;99.90;;;;;;4905868;29;20088;-86
2021/06/11 09:49:29;;;;;;;11.50;8.02;;;22.60;99.90;;;;;;4895646;29;20076;-85
2021/06/11 09:52:08;;;;;;;11.05;7.72;;;22.70;99.90;;;;;;4900416;29;20044;-76
2021/06/11 09:54:38;;;;;;;11.00;8.23;;;22.90;99.90;;;;;;4916153;29;20040;-75
2021/06/11 09:57:24;;;;;;;9.68;8.15;;;22.90;99.90;;;;;;4918421;29;20050;-76
2021/06/11 10:00:09;;;;;;;9.98;7.60;;;23.10;99.90;;;;;;4914743;29;20032;-82
2021/06/11 10:02:38;;;;;;;13.55;8.80;;;23.00;99.90;;;;;;4914388;29;20040;-81
2021/06/11 10:05:05;;;;;;;10.20;7.53;;;23.00;99.90;;;;;;4915539;29;20191;-80
2021/06/11 10:07:34;;;;;;;13.27;9.80;;;23.10;99.90;;;;;;4909519;29;20056;-80
2021/06/11 10:10:00;;;;;;;19.88;9.50;;;23.30;99.90;;;;;;4911311;29;20051;-80
2021/06/11 10:12:29;;;;;;;11.98;7.15;;;23.30;99.90;;;;;;4913609;29;20040;-80
2021/06/11 10:14:58;;;;;;;17.15;11.13;;;23.40;99.90;;;;;;4914943;29;20081;-81
2021/06/11 10:17:25;;;;;;;14.85;9.32;;;23.40;99.90;;;;;;4911655;29;20044;-81
2021/06/11 10:19:55;;;;;;;14.30;9.15;;;23.40;99.90;;;;;;4907179;29;20423;-76
2021/06/11 10:22:22;;;;;;;12.40;6.88;;;23.40;99.90;;;;;;4915528;29;20043;-81
2021/06/11 10:24:53;;;;;;;14.57;8.55;;;23.40;99.90;;;;;;4914652;29;20044;-81
2021/06/11 10:27:23;;;;;;;12.63;8.27;;;23.40;99.90;;;;;;4915588;29;20116;-76
2021/06/11 10:29:52;;;;;;;14.00;8.80;;;23.50;99.90;;;;;;4916104;29;20063;-76
2021/06/11 10:32:24;;;;;;;13.70;9.75;;;23.60;99.90;;;;;;4915381;29;20036;-76
2021/06/11 10:35:02;;;;;;;16.33;11.20;;;23.60;99.90;;;;;;4899331;29;20044;-76
2021/06/11 10:37:35;;;;;;;18.23;10.60;;;23.70;99.90;;;;;;4902756;29;20040;-81
2021/06/11 10:40:23;;;;;;;15.60;11.25;;;23.70;99.90;;;;;;4916047;29;20676;-81
2021/06/11 10:43:25;;;;;;;18.80;10.65;;;23.60;99.90;;;;;;4919949;29;20104;-76
2021/06/11 10:45:55;;;;;;;17.25;10.55;;;23.60;99.90;;;;;;4915776;29;20100;-81
2021/06/11 10:48:56;;;;;;;18.55;11.23;;;23.60;99.90;;;;;;4903595;29;20041;-76
2021/06/11 10:51:50;;;;;;;15.73;9.43;;;23.50;99.90;;;;;;4907667;29;20040;-81
2021/06/11 10:54:16;;;;;;;17.00;10.43;;;23.50;99.90;;;;;;4915681;29;20056;-81
2021/06/11 10:56:57;;;;;;;14.15;10.38;;;23.50;99.90;;;;;;4896896;29;20047;-76
2021/06/11 10:59:49;;;;;;;14.38;9.38;;;23.60;99.90;;;;;;4914825;29;20036;-76
2021/06/11 11:02:17;;;;;;;18.88;11.15;;;23.80;99.90;;;;;;4914311;29;20123;-76
2021/06/11 11:04:50;;;;;;;17.48;11.48;;;23.90;99.90;;;;;;4913741;29;20161;-80
2021/06/11 11:07:28;;;;;;;17.35;11.38;;;24.00;99.90;;;;;;4915628;29;20112;-81
2021/06/11 11:10:02;;;;;;;19.20;13.48;;;24.10;99.90;;;;;;4914482;29;20063;-76
2021/06/11 11:12:31;;;;;;;27.65;17.90;;;24.10;99.90;;;;;;4918027;29;20540;-76
2021/06/11 11:14:59;;;;;;;15.18;11.88;;;24.00;99.90;;;;;;4932771;29;20056;-76
2021/06/11 11:17:26;;;;;;;14.52;11.43;;;23.80;99.90;;;;;;4918597;29;20044;-76
2021/06/11 11:20:02;;;;;;;35.55;22.35;;;23.70;99.90;;;;;;4901016;29;20047;-76
2021/06/11 11:22:59;;;;;;;135.85;63.00;;;23.60;99.90;;;;;;4908250;29;20111;-81
2021/06/11 11:25:34;;;;;;;92.40;47.05;;;23.40;99.90;;;;;;4917582;29;20044;-77
2021/06/11 11:28:03;;;;;;;19.52;14.13;;;23.30;99.90;;;;;;4914528;29;20112;-80
2021/06/11 11:30:29;;;;;;;17.98;12.45;;;23.40;99.90;;;;;;4921074;29;20202;-81
2021/06/11 11:33:02;;;;;;;38.70;32.13;;;23.50;99.90;;;;;;4925363;29;20111;-74
2021/06/11 11:35:37;;;;;;;12.30;9.07;;;23.60;99.90;;;;;;4909198;29;20060;-75
2021/06/11 11:38:10;;;;;;;16.75;9.88;;;23.70;99.90;;;;;;4900681;29;20063;-75
2021/06/11 11:40:56;;;;;;;20.98;9.07;;;23.80;99.90;;;;;;4913488;29;20043;-75
2021/06/11 11:43:26;;;;;;;72.80;60.95;;;23.90;99.90;;;;;;4911686;29;20044;-75
2021/06/11 11:45:56;;;;;;;135.13;95.57;;;24.10;99.90;;;;;;4916260;29;20064;-76
2021/06/11 11:48:24;;;;;;;50.95;38.83;;;24.10;99.90;;;;;;4924310;29;20044;-76
2021/06/11 11:50:50;;;;;;;23.13;13.32;;;24.10;99.90;;;;;;4921034;29;20058;-77
2021/06/11 11:53:17;;;;;;;14.68;8.13;;;24.20;99.90;;;;;;4916203;29;20052;-80
2021/06/11 11:56:09;;;;;;;11.45;7.28;;;24.20;99.90;;;;;;4917133;29;20056;-80
2021/06/11 11:58:35;;;;;;;12.27;7.85;;;24.40;99.90;;;;;;4899426;29;20057;-80
2021/06/11 12:01:06;;;;;;;14.05;6.28;;;24.40;99.90;;;;;;4915487;29;20047;-80
2021/06/11 12:03:32;;;;;;;14.02;6.78;;;24.60;99.90;;;;;;4917032;29;20040;-80
2021/06/11 12:05:58;;;;;;;10.65;6.65;;;24.60;99.90;;;;;;4901396;29;20096;-80
2021/06/11 12:08:26;;;;;;;8.15;6.20;;;24.60;99.90;;;;;;4917502;29;20552;-80
2021/06/11 12:10:58;;;;;;;12.40;6.40;;;24.70;99.90;;;;;;4918087;29;20036;-80
2021/06/11 12:13:32;;;;;;;7.10;5.30;;;24.80;99.90;;;;;;4914861;29;20449;-80
2021/06/11 12:15:58;;;;;;;8.68;6.28;;;25.00;99.90;;;;;;4917887;29;20513;-79
2021/06/11 12:18:27;;;;;;;10.10;6.97;;;25.00;99.90;;;;;;4929939;29;20040;-80
2021/06/11 12:21:21;;;;;;;7.97;6.38;;;24.90;99.90;;;;;;4921512;29;20457;-80
2021/06/11 12:24:06;;;;;;;15.65;10.13;;;24.80;99.90;;;;;;4915834;29;20456;-80
2021/06/11 12:26:41;;;;;;;17.20;8.80;;;24.60;99.90;;;;;;4913245;29;20051;-80
2021/06/11 12:29:22;;;;;;;11.73;7.88;;;24.50;99.90;;;;;;4914841;29;20051;-80
2021/06/11 12:31:51;;;;;;;11.35;7.90;;;24.50;99.90;;;;;;4932117;29;20088;-80
2021/06/11 12:34:23;;;;;;;9.15;7.95;;;24.60;99.90;;;;;;4931075;29;20050;-80
2021/06/11 12:36:49;;;;;;;9.38;6.07;;;24.70;99.90;;;;;;4916132;29;20051;-80
2021/06/11 12:39:30;;;;;;;6.75;5.35;;;24.80;99.90;;;;;;4913211;29;20482;-80
2021/06/11 12:42:20;;;;;;;8.73;5.85;;;24.80;99.90;;;;;;4903307;29;20040;-80
2021/06/11 12:44:47;;;;;;;10.13;7.40;;;24.70;99.90;;;;;;4915634;29;20048;-80
2021/06/11 12:47:16;;;;;;;8.93;6.95;;;24.60;99.90;;;;;;4917022;29;20127;-80
2021/06/11 12:49:43;;;;;;;8.40;6.55;;;24.50;99.90;;;;;;4929952;29;20039;-79
2021/06/11 12:52:16;;;;;;;12.02;7.70;;;24.40;99.90;;;;;;4931348;29;20040;-79